sensor_id;sensor_type;location;lat;lon;timestamp;P1;durP1;ratioP1;P2;durP2;ratioP2
18114;SDS011;9184;54.390;18.620;2024-03-25T00:00:29;20.27;;;11.13;;
18114;SDS011;9184;54.390;18.620;2024-03-25T00:00:59;19.33;;;11.87;;
18114;SDS011;9184;54.390;18.620;2024-03-25T00:01:30;16.37;;;11.10;;
18114;SDS011;9184;54.390;18.620;2024-03-25T00:02:02;18.27;;;10.77;;
18114;SDS011;9184;54.390;18.620;2024-03-25T00:02:32;19.87;;;11.13;;
18114;SDS011;9184;54.390;18.620;2024-03-25T00:03:05;14.37;;;10.50;;
18114;SDS011;9184;54.390;18.620;2024-03-25T00:03:35;15.87;;;11.03;;
18114;SDS011;9184;54.390;18.620;2024-03-25T00:04:06;20.70;;;11.73;;
18114;SDS011;9184;54.390;18.620;2024-03-25T00:04:36;19.67;;;11.90;;
18114;SDS011;9184;54.390;18.620;2024-03-25T00:05:07;18.17;;;11.17;;
18114;SDS011;9184;54.390;18.620;2024-03-25T00:05:39;17.63;;;10.90;;
18114;SDS011;9184;54.390;18.620;2024-03-25T00:06:11;17.03;;;11.17;;
18114;SDS011;9184;54.390;18.620;2024-03-25T00:06:41;14.73;;;10.13;;
18114;SDS011;9184;54.390;18.620;2024-03-25T00:07:12;19.23;;;11.60;;
18114;SDS011;9184;54.390;18.620;2024-03-25T00:07:42;16.60;;;10.83;;
18114;SDS011;9184;54.390;18.620;2024-03-25T00:08:13;18.57;;;11.43;;
18114;SDS011;9184;54.390;18.620;2024-03-25T00:08:43;16.40;;;10.80;;
18114;SDS011;9184;54.390;18.620;2024-03-25T00:09:14;16.20;;;10.40;;
18114;SDS011;9184;54.390;18.620;2024-03-25T00:09:46;18.13;;;10.73;;
18114;SDS011;9184;54.390;18.620;2024-03-25T00:10:17;31.93;;;11.47;;
18114;SDS011;9184;54.390;18.620;2024-03-25T00:10:48;17.57;;;10.63;;
18114;SDS011;9184;54.390;18.620;2024-03-25T00:11:18;15.70;;;10.87;;
18114;SDS011;9184;54.390;18.620;2024-03-25T00:11:49;17.33;;;10.80;;
18114;SDS011;9184;54.390;18.620;2024-03-25T00:12:19;20.63;;;11.30;;
18114;SDS011;9184;54.390;18.620;2024-03-25T00:12:50;20.33;;;11.67;;
18114;SDS011;9184;54.390;18.620;2024-03-25T00:13:24;15.43;;;10.60;;
18114;SDS011;9184;54.390;18.620;2024-03-25T00:13:56;23.53;;;11.27;;
18114;SDS011;9184;54.390;18.620;2024-03-25T00:14:26;17.20;;;10.77;;
18114;SDS011;9184;54.390;18.620;2024-03-25T00:14:57;22.50;;;10.87;;
18114;SDS011;9184;54.390;18.620;2024-03-25T00:15:27;18.33;;;10.90;;
18114;SDS011;9184;54.390;18.620;2024-03-25T00:15:58;20.63;;;11.07;;
18114;SDS011;9184;54.390;18.620;2024-03-25T00:16:29;16.87;;;10.80;;
18114;SDS011;9184;54.390;18.620;2024-03-25T00:16:59;15.30;;;10.77;;
18114;SDS011;9184;54.390;18.620;2024-03-25T00:17:31;16.67;;;10.40;;
18114;SDS011;9184;54.390;18.620;2024-03-25T00:18:02;20.00;;;11.30;;
18114;SDS011;9184;54.390;18.620;2024-03-25T00:18:32;18.23;;;11.20;;
18114;SDS011;9184;54.390;18.620;2024-03-25T00:19:04;18.70;;;10.63;;
18114;SDS011;9184;54.390;18.620;2024-03-25T00:19:34;20.43;;;11.63;;
18114;SDS011;9184;54.390;18.620;2024-03-25T00:20:05;18.27;;;11.47;;
18114;SDS011;9184;54.390;18.620;2024-03-25T00:20:39;15.30;;;10.40;;
18114;SDS011;9184;54.390;18.620;2024-03-25T00:21:10;20.03;;;11.53;;
18114;SDS011;9184;54.390;18.620;2024-03-25T00:21:40;15.53;;;10.43;;
18114;SDS011;9184;54.390;18.620;2024-03-25T00:22:12;19.80;;;11.57;;
18114;SDS011;9184;54.390;18.620;2024-03-25T00:22:42;17.83;;;10.67;;
18114;SDS011;9184;54.390;18.620;2024-03-25T00:23:14;19.57;;;11.37;;
18114;SDS011;9184;54.390;18.620;2024-03-25T00:23:45;21.47;;;13.67;;
18114;SDS011;9184;54.390;18.620;2024-03-25T00:24:15;25.33;;;13.63;;
18114;SDS011;9184;54.390;18.620;2024-03-25T00:24:46;22.67;;;12.70;;
18114;SDS011;9184;54.390;18.620;2024-03-25T00:25:17;17.87;;;12.30;;
18114;SDS011;9184;54.390;18.620;2024-03-25T00:25:47;18.20;;;11.27;;
18114;SDS011;9184;54.390;18.620;2024-03-25T00:26:18;18.37;;;11.73;;
18114;SDS011;9184;54.390;18.620;2024-03-25T00:26:58;19.63;;;12.23;;
18114;SDS011;9184;54.390;18.620;2024-03-25T00:27:28;17.47;;;11.10;;
18114;SDS011;9184;54.390;18.620;2024-03-25T00:28:00;18.33;;;11.67;;
18114;SDS011;9184;54.390;18.620;2024-03-25T00:28:30;23.60;;;13.10;;
18114;SDS011;9184;54.390;18.620;2024-03-25T00:29:01;19.40;;;12.27;;
18114;SDS011;9184;54.390;18.620;2024-03-25T00:29:31;21.23;;;13.70;;
18114;SDS011;9184;54.390;18.620;2024-03-25T00:30:02;23.37;;;13.77;;
18114;SDS011;9184;54.390;18.620;2024-03-25T00:30:35;24.37;;;14.73;;
18114;SDS011;9184;54.390;18.620;2024-03-25T00:31:05;26.73;;;14.80;;
18114;SDS011;9184;54.390;18.620;2024-03-25T00:31:36;27.17;;;14.90;;
18114;SDS011;9184;54.390;18.620;2024-03-25T00:32:06;24.53;;;14.60;;
18114;SDS011;9184;54.390;18.620;2024-03-25T00:32:38;22.77;;;14.83;;
18114;SDS011;9184;54.390;18.620;2024-03-25T00:33:09;21.93;;;14.40;;
18114;SDS011;9184;54.390;18.620;2024-03-25T00:33:40;27.30;;;15.77;;
18114;SDS011;9184;54.390;18.620;2024-03-25T00:34:11;22.87;;;13.77;;
18114;SDS011;9184;54.390;18.620;2024-03-25T00:34:43;27.17;;;14.60;;
18114;SDS011;9184;54.390;18.620;2024-03-25T00:35:13;21.40;;;14.50;;
18114;SDS011;9184;54.390;18.620;2024-03-25T00:35:44;23.47;;;14.50;;
18114;SDS011;9184;54.390;18.620;2024-03-25T00:36:16;23.63;;;14.70;;
18114;SDS011;9184;54.390;18.620;2024-03-25T00:36:46;20.27;;;13.13;;
18114;SDS011;9184;54.390;18.620;2024-03-25T00:37:17;23.83;;;13.80;;
18114;SDS011;9184;54.390;18.620;2024-03-25T00:37:47;20.97;;;12.93;;
18114;SDS011;9184;54.390;18.620;2024-03-25T00:38:19;19.43;;;13.23;;
18114;SDS011;9184;54.390;18.620;2024-03-25T00:38:49;22.73;;;13.37;;
18114;SDS011;9184;54.390;18.620;2024-03-25T00:39:20;20.97;;;12.07;;
18114;SDS011;9184;54.390;18.620;2024-03-25T00:39:51;19.60;;;11.80;;
18114;SDS011;9184;54.390;18.620;2024-03-25T00:40:23;20.87;;;12.83;;
18114;SDS011;9184;54.390;18.620;2024-03-25T00:40:53;24.07;;;12.90;;
18114;SDS011;9184;54.390;18.620;2024-03-25T00:41:24;15.97;;;11.07;;
18114;SDS011;9184;54.390;18.620;2024-03-25T00:41:56;25.90;;;12.63;;
18114;SDS011;9184;54.390;18.620;2024-03-25T00:42:27;17.93;;;13.00;;
18114;SDS011;9184;54.390;18.620;2024-03-25T00:42:57;21.93;;;13.40;;
18114;SDS011;9184;54.390;18.620;2024-03-25T00:43:28;21.00;;;12.90;;
18114;SDS011;9184;54.390;18.620;2024-03-25T00:43:58;27.27;;;13.20;;
18114;SDS011;9184;54.390;18.620;2024-03-25T00:44:29;27.20;;;14.43;;
18114;SDS011;9184;54.390;18.620;2024-03-25T00:45:01;22.03;;;13.87;;
18114;SDS011;9184;54.390;18.620;2024-03-25T00:45:31;25.83;;;12.83;;
18114;SDS011;9184;54.390;18.620;2024-03-25T00:46:02;19.13;;;12.77;;
18114;SDS011;9184;54.390;18.620;2024-03-25T00:46:32;20.13;;;11.20;;
18114;SDS011;9184;54.390;18.620;2024-03-25T00:47:03;20.13;;;11.97;;
18114;SDS011;9184;54.390;18.620;2024-03-25T00:47:33;18.43;;;12.13;;
18114;SDS011;9184;54.390;18.620;2024-03-25T00:48:06;20.37;;;12.60;;
18114;SDS011;9184;54.390;18.620;2024-03-25T00:48:37;17.90;;;12.20;;
18114;SDS011;9184;54.390;18.620;2024-03-25T00:49:08;23.33;;;13.33;;
18114;SDS011;9184;54.390;18.620;2024-03-25T00:49:39;21.30;;;11.70;;
18114;SDS011;9184;54.390;18.620;2024-03-25T00:50:09;16.83;;;11.53;;
18114;SDS011;9184;54.390;18.620;2024-03-25T00:50:40;20.67;;;12.20;;
18114;SDS011;9184;54.390;18.620;2024-03-25T00:51:10;15.90;;;11.93;;
18114;SDS011;9184;54.390;18.620;2024-03-25T00:51:42;21.57;;;11.93;;
18114;SDS011;9184;54.390;18.620;2024-03-25T00:52:12;21.47;;;11.73;;
18114;SDS011;9184;54.390;18.620;2024-03-25T00:52:43;18.10;;;11.27;;
18114;SDS011;9184;54.390;18.620;2024-03-25T00:53:13;17.47;;;11.43;;
18114;SDS011;9184;54.390;18.620;2024-03-25T00:53:44;17.60;;;11.10;;
18114;SDS011;9184;54.390;18.620;2024-03-25T00:54:15;21.07;;;11.37;;
18114;SDS011;9184;54.390;18.620;2024-03-25T00:54:45;17.80;;;11.60;;
18114;SDS011;9184;54.390;18.620;2024-03-25T00:55:17;20.27;;;11.33;;
18114;SDS011;9184;54.390;18.620;2024-03-25T00:55:47;24.63;;;11.20;;
18114;SDS011;9184;54.390;18.620;2024-03-25T00:56:18;18.87;;;11.13;;
18114;SDS011;9184;54.390;18.620;2024-03-25T00:56:48;16.63;;;9.93;;
18114;SDS011;9184;54.390;18.620;2024-03-25T00:57:19;18.13;;;10.87;;
18114;SDS011;9184;54.390;18.620;2024-03-25T00:57:50;18.77;;;12.17;;
18114;SDS011;9184;54.390;18.620;2024-03-25T00:58:21;13.90;;;10.73;;
18114;SDS011;9184;54.390;18.620;2024-03-25T00:58:52;18.07;;;10.93;;
18114;SDS011;9184;54.390;18.620;2024-03-25T00:59:22;18.43;;;10.03;;
18114;SDS011;9184;54.390;18.620;2024-03-25T00:59:54;16.67;;;11.03;;
18114;SDS011;9184;54.390;18.620;2024-03-25T01:00:25;14.93;;;10.20;;
18114;SDS011;9184;54.390;18.620;2024-03-25T01:00:55;14.57;;;10.80;;
18114;SDS011;9184;54.390;18.620;2024-03-25T01:01:26;13.97;;;10.40;;
18114;SDS011;9184;54.390;18.620;2024-03-25T01:01:57;15.63;;;10.83;;
18114;SDS011;9184;54.390;18.620;2024-03-25T01:02:28;16.90;;;10.17;;
18114;SDS011;9184;54.390;18.620;2024-03-25T01:02:58;15.80;;;10.83;;
18114;SDS011;9184;54.390;18.620;2024-03-25T01:03:30;15.73;;;10.23;;
18114;SDS011;9184;54.390;18.620;2024-03-25T01:04:01;15.43;;;10.27;;
18114;SDS011;9184;54.390;18.620;2024-03-25T01:04:31;16.37;;;10.83;;
18114;SDS011;9184;54.390;18.620;2024-03-25T01:05:03;14.13;;;10.87;;
18114;SDS011;9184;54.390;18.620;2024-03-25T01:05:35;17.73;;;10.90;;
18114;SDS011;9184;54.390;18.620;2024-03-25T01:06:06;18.10;;;11.07;;
18114;SDS011;9184;54.390;18.620;2024-03-25T01:06:37;13.37;;;10.47;;
18114;SDS011;9184;54.390;18.620;2024-03-25T01:07:07;16.37;;;10.30;;
18114;SDS011;9184;54.390;18.620;2024-03-25T01:07:38;14.83;;;9.60;;
18114;SDS011;9184;54.390;18.620;2024-03-25T01:08:09;14.50;;;9.73;;
18114;SDS011;9184;54.390;18.620;2024-03-25T01:08:41;14.03;;;10.57;;
18114;SDS011;9184;54.390;18.620;2024-03-25T01:09:11;16.70;;;10.80;;
18114;SDS011;9184;54.390;18.620;2024-03-25T01:09:43;15.77;;;10.23;;
18114;SDS011;9184;54.390;18.620;2024-03-25T01:10:14;20.67;;;11.57;;
18114;SDS011;9184;54.390;18.620;2024-03-25T01:10:44;17.63;;;11.10;;
18114;SDS011;9184;54.390;18.620;2024-03-25T01:11:15;14.80;;;10.57;;
18114;SDS011;9184;54.390;18.620;2024-03-25T01:11:45;12.40;;;10.00;;
18114;SDS011;9184;54.390;18.620;2024-03-25T01:12:17;16.87;;;11.20;;
18114;SDS011;9184;54.390;18.620;2024-03-25T01:12:48;14.07;;;10.23;;
18114;SDS011;9184;54.390;18.620;2024-03-25T01:13:18;16.67;;;10.53;;
18114;SDS011;9184;54.390;18.620;2024-03-25T01:13:49;16.77;;;11.13;;
18114;SDS011;9184;54.390;18.620;2024-03-25T01:14:19;14.77;;;10.53;;
18114;SDS011;9184;54.390;18.620;2024-03-25T01:14:50;15.40;;;10.03;;
18114;SDS011;9184;54.390;18.620;2024-03-25T01:15:21;16.47;;;11.27;;
18114;SDS011;9184;54.390;18.620;2024-03-25T01:15:52;19.97;;;10.13;;
18114;SDS011;9184;54.390;18.620;2024-03-25T01:16:23;15.03;;;10.57;;
18114;SDS011;9184;54.390;18.620;2024-03-25T01:16:55;16.77;;;10.57;;
18114;SDS011;9184;54.390;18.620;2024-03-25T01:17:26;14.67;;;9.37;;
18114;SDS011;9184;54.390;18.620;2024-03-25T01:17:57;14.50;;;9.80;;
18114;SDS011;9184;54.390;18.620;2024-03-25T01:18:28;14.60;;;10.67;;
18114;SDS011;9184;54.390;18.620;2024-03-25T01:19:01;16.70;;;10.70;;
18114;SDS011;9184;54.390;18.620;2024-03-25T01:19:32;19.17;;;10.20;;
18114;SDS011;9184;54.390;18.620;2024-03-25T01:20:03;21.17;;;10.60;;
18114;SDS011;9184;54.390;18.620;2024-03-25T01:20:34;17.57;;;11.87;;
18114;SDS011;9184;54.390;18.620;2024-03-25T01:21:06;14.37;;;10.67;;
18114;SDS011;9184;54.390;18.620;2024-03-25T01:21:37;20.70;;;11.27;;
18114;SDS011;9184;54.390;18.620;2024-03-25T01:22:08;19.03;;;10.17;;
18114;SDS011;9184;54.390;18.620;2024-03-25T01:22:39;16.57;;;10.37;;
18114;SDS011;9184;54.390;18.620;2024-03-25T01:23:09;16.20;;;10.27;;
18114;SDS011;9184;54.390;18.620;2024-03-25T01:23:40;17.87;;;11.73;;
18114;SDS011;9184;54.390;18.620;2024-03-25T01:24:10;17.60;;;10.87;;
18114;SDS011;9184;54.390;18.620;2024-03-25T01:24:42;17.90;;;10.80;;
18114;SDS011;9184;54.390;18.620;2024-03-25T01:25:13;19.53;;;11.27;;
18114;SDS011;9184;54.390;18.620;2024-03-25T01:25:43;20.73;;;11.93;;
18114;SDS011;9184;54.390;18.620;2024-03-25T01:26:14;21.93;;;12.77;;
18114;SDS011;9184;54.390;18.620;2024-03-25T01:26:45;21.00;;;13.17;;
18114;SDS011;9184;54.390;18.620;2024-03-25T01:27:15;17.90;;;12.33;;
18114;SDS011;9184;54.390;18.620;2024-03-25T01:27:46;19.80;;;13.03;;
18114;SDS011;9184;54.390;18.620;2024-03-25T01:28:17;20.93;;;13.53;;
18114;SDS011;9184;54.390;18.620;2024-03-25T01:28:48;22.00;;;13.00;;
18114;SDS011;9184;54.390;18.620;2024-03-25T01:29:18;21.13;;;13.67;;
18114;SDS011;9184;54.390;18.620;2024-03-25T01:29:49;19.30;;;13.47;;
18114;SDS011;9184;54.390;18.620;2024-03-25T01:30:19;19.83;;;12.97;;
18114;SDS011;9184;54.390;18.620;2024-03-25T01:30:50;18.87;;;13.17;;
18114;SDS011;9184;54.390;18.620;2024-03-25T01:31:20;23.97;;;14.30;;
18114;SDS011;9184;54.390;18.620;2024-03-25T01:31:50;22.33;;;13.83;;
18114;SDS011;9184;54.390;18.620;2024-03-25T01:32:22;23.80;;;13.50;;
18114;SDS011;9184;54.390;18.620;2024-03-25T01:32:53;23.77;;;14.03;;
18114;SDS011;9184;54.390;18.620;2024-03-25T01:33:23;19.77;;;13.23;;
18114;SDS011;9184;54.390;18.620;2024-03-25T01:33:53;19.93;;;13.33;;
18114;SDS011;9184;54.390;18.620;2024-03-25T01:34:25;24.23;;;13.20;;
18114;SDS011;9184;54.390;18.620;2024-03-25T01:34:56;19.83;;;12.07;;
18114;SDS011;9184;54.390;18.620;2024-03-25T01:35:26;18.60;;;13.40;;
18114;SDS011;9184;54.390;18.620;2024-03-25T01:35:58;22.57;;;13.43;;
18114;SDS011;9184;54.390;18.620;2024-03-25T01:36:29;25.67;;;13.40;;
18114;SDS011;9184;54.390;18.620;2024-03-25T01:36:59;23.27;;;13.97;;
18114;SDS011;9184;54.390;18.620;2024-03-25T01:37:29;19.77;;;13.60;;
18114;SDS011;9184;54.390;18.620;2024-03-25T01:38:00;20.70;;;14.83;;
18114;SDS011;9184;54.390;18.620;2024-03-25T01:38:30;22.17;;;13.67;;
18114;SDS011;9184;54.390;18.620;2024-03-25T01:39:02;20.73;;;13.43;;
18114;SDS011;9184;54.390;18.620;2024-03-25T01:39:34;21.50;;;13.77;;
18114;SDS011;9184;54.390;18.620;2024-03-25T01:40:06;20.33;;;13.57;;
18114;SDS011;9184;54.390;18.620;2024-03-25T01:40:37;19.77;;;12.97;;
18114;SDS011;9184;54.390;18.620;2024-03-25T01:41:07;23.30;;;13.50;;
18114;SDS011;9184;54.390;18.620;2024-03-25T01:41:38;20.10;;;13.93;;
18114;SDS011;9184;54.390;18.620;2024-03-25T01:42:09;20.13;;;13.97;;
18114;SDS011;9184;54.390;18.620;2024-03-25T01:42:40;23.40;;;14.17;;
18114;SDS011;9184;54.390;18.620;2024-03-25T01:43:11;21.07;;;13.70;;
18114;SDS011;9184;54.390;18.620;2024-03-25T01:43:41;18.20;;;13.13;;
18114;SDS011;9184;54.390;18.620;2024-03-25T01:44:12;20.33;;;13.40;;
18114;SDS011;9184;54.390;18.620;2024-03-25T01:44:42;20.97;;;13.40;;
18114;SDS011;9184;54.390;18.620;2024-03-25T01:45:13;22.43;;;13.27;;
18114;SDS011;9184;54.390;18.620;2024-03-25T01:45:44;17.70;;;11.80;;
18114;SDS011;9184;54.390;18.620;2024-03-25T01:46:15;22.40;;;12.60;;
18114;SDS011;9184;54.390;18.620;2024-03-25T01:46:46;26.63;;;13.70;;
18114;SDS011;9184;54.390;18.620;2024-03-25T01:47:16;24.00;;;13.67;;
18114;SDS011;9184;54.390;18.620;2024-03-25T01:47:47;32.43;;;14.57;;
18114;SDS011;9184;54.390;18.620;2024-03-25T01:48:17;45.70;;;14.47;;
18114;SDS011;9184;54.390;18.620;2024-03-25T01:48:49;30.43;;;13.80;;
18114;SDS011;9184;54.390;18.620;2024-03-25T01:49:20;24.60;;;12.80;;
18114;SDS011;9184;54.390;18.620;2024-03-25T01:49:52;25.70;;;13.40;;
18114;SDS011;9184;54.390;18.620;2024-03-25T01:50:23;26.43;;;14.33;;
18114;SDS011;9184;54.390;18.620;2024-03-25T01:50:54;27.13;;;14.03;;
18114;SDS011;9184;54.390;18.620;2024-03-25T01:51:25;23.87;;;14.73;;
18114;SDS011;9184;54.390;18.620;2024-03-25T01:51:56;24.47;;;13.20;;
18114;SDS011;9184;54.390;18.620;2024-03-25T01:52:29;20.67;;;12.63;;
18114;SDS011;9184;54.390;18.620;2024-03-25T01:52:59;26.33;;;14.30;;
18114;SDS011;9184;54.390;18.620;2024-03-25T01:53:30;25.93;;;13.50;;
18114;SDS011;9184;54.390;18.620;2024-03-25T01:54:00;28.80;;;13.33;;
18114;SDS011;9184;54.390;18.620;2024-03-25T01:54:31;24.40;;;14.30;;
18114;SDS011;9184;54.390;18.620;2024-03-25T01:55:02;29.23;;;14.13;;
18114;SDS011;9184;54.390;18.620;2024-03-25T01:55:35;32.27;;;14.77;;
18114;SDS011;9184;54.390;18.620;2024-03-25T01:56:06;23.17;;;13.60;;
18114;SDS011;9184;54.390;18.620;2024-03-25T01:56:37;32.33;;;14.87;;
18114;SDS011;9184;54.390;18.620;2024-03-25T01:57:08;32.03;;;15.63;;
18114;SDS011;9184;54.390;18.620;2024-03-25T01:57:39;40.73;;;15.97;;
18114;SDS011;9184;54.390;18.620;2024-03-25T01:58:10;33.43;;;15.57;;
18114;SDS011;9184;54.390;18.620;2024-03-25T01:58:41;25.17;;;15.67;;
18114;SDS011;9184;54.390;18.620;2024-03-25T01:59:11;25.13;;;14.87;;
18114;SDS011;9184;54.390;18.620;2024-03-25T01:59:42;35.10;;;15.30;;
18114;SDS011;9184;54.390;18.620;2024-03-25T02:00:14;36.37;;;14.73;;
18114;SDS011;9184;54.390;18.620;2024-03-25T02:00:46;31.20;;;15.50;;
18114;SDS011;9184;54.390;18.620;2024-03-25T02:01:17;31.57;;;15.07;;
18114;SDS011;9184;54.390;18.620;2024-03-25T02:01:49;28.57;;;15.03;;
18114;SDS011;9184;54.390;18.620;2024-03-25T02:02:20;24.37;;;14.40;;
18114;SDS011;9184;54.390;18.620;2024-03-25T02:02:51;23.20;;;14.30;;
18114;SDS011;9184;54.390;18.620;2024-03-25T02:03:21;26.40;;;15.17;;
18114;SDS011;9184;54.390;18.620;2024-03-25T02:03:53;23.73;;;14.80;;
18114;SDS011;9184;54.390;18.620;2024-03-25T02:04:25;24.90;;;14.23;;
18114;SDS011;9184;54.390;18.620;2024-03-25T02:04:58;26.40;;;14.60;;
18114;SDS011;9184;54.390;18.620;2024-03-25T02:05:28;28.13;;;14.63;;
18114;SDS011;9184;54.390;18.620;2024-03-25T02:05:59;25.57;;;15.73;;
18114;SDS011;9184;54.390;18.620;2024-03-25T02:06:31;26.47;;;15.13;;
18114;SDS011;9184;54.390;18.620;2024-03-25T02:07:02;25.17;;;14.63;;
18114;SDS011;9184;54.390;18.620;2024-03-25T02:07:34;33.67;;;15.63;;
18114;SDS011;9184;54.390;18.620;2024-03-25T02:08:06;27.93;;;15.93;;
18114;SDS011;9184;54.390;18.620;2024-03-25T02:08:37;27.13;;;15.63;;
18114;SDS011;9184;54.390;18.620;2024-03-25T02:09:09;26.73;;;15.80;;
18114;SDS011;9184;54.390;18.620;2024-03-25T02:09:40;26.10;;;16.80;;
18114;SDS011;9184;54.390;18.620;2024-03-25T02:10:11;24.20;;;15.93;;
18114;SDS011;9184;54.390;18.620;2024-03-25T02:10:44;25.97;;;15.67;;
18114;SDS011;9184;54.390;18.620;2024-03-25T02:11:15;26.57;;;16.27;;
18114;SDS011;9184;54.390;18.620;2024-03-25T02:11:46;25.07;;;15.23;;
18114;SDS011;9184;54.390;18.620;2024-03-25T02:12:16;27.67;;;15.00;;
18114;SDS011;9184;54.390;18.620;2024-03-25T02:12:47;25.80;;;15.73;;
18114;SDS011;9184;54.390;18.620;2024-03-25T02:13:17;30.33;;;16.43;;
18114;SDS011;9184;54.390;18.620;2024-03-25T02:13:48;25.50;;;14.97;;
18114;SDS011;9184;54.390;18.620;2024-03-25T02:14:18;24.63;;;15.73;;
18114;SDS011;9184;54.390;18.620;2024-03-25T02:14:49;23.73;;;13.97;;
18114;SDS011;9184;54.390;18.620;2024-03-25T02:15:20;31.50;;;15.20;;
18114;SDS011;9184;54.390;18.620;2024-03-25T02:15:51;27.93;;;16.10;;
18114;SDS011;9184;54.390;18.620;2024-03-25T02:16:22;27.80;;;16.37;;
18114;SDS011;9184;54.390;18.620;2024-03-25T02:16:53;29.03;;;15.80;;
18114;SDS011;9184;54.390;18.620;2024-03-25T02:17:23;32.60;;;16.87;;
18114;SDS011;9184;54.390;18.620;2024-03-25T02:17:54;26.17;;;15.00;;
18114;SDS011;9184;54.390;18.620;2024-03-25T02:18:25;25.00;;;15.57;;
18114;SDS011;9184;54.390;18.620;2024-03-25T02:19:00;22.63;;;15.57;;
18114;SDS011;9184;54.390;18.620;2024-03-25T02:19:31;24.90;;;15.50;;
18114;SDS011;9184;54.390;18.620;2024-03-25T02:20:03;24.17;;;15.73;;
18114;SDS011;9184;54.390;18.620;2024-03-25T02:20:35;27.63;;;16.00;;
18114;SDS011;9184;54.390;18.620;2024-03-25T02:21:05;26.40;;;15.93;;
18114;SDS011;9184;54.390;18.620;2024-03-25T02:21:36;25.47;;;15.20;;
18114;SDS011;9184;54.390;18.620;2024-03-25T02:22:06;31.30;;;16.50;;
18114;SDS011;9184;54.390;18.620;2024-03-25T02:22:38;22.37;;;14.77;;
18114;SDS011;9184;54.390;18.620;2024-03-25T02:23:09;26.97;;;15.37;;
18114;SDS011;9184;54.390;18.620;2024-03-25T02:23:40;22.50;;;15.63;;
18114;SDS011;9184;54.390;18.620;2024-03-25T02:24:11;23.73;;;14.53;;
18114;SDS011;9184;54.390;18.620;2024-03-25T02:24:42;22.87;;;14.23;;
18114;SDS011;9184;54.390;18.620;2024-03-25T02:25:14;23.23;;;14.23;;
18114;SDS011;9184;54.390;18.620;2024-03-25T02:25:49;27.10;;;15.23;;
18114;SDS011;9184;54.390;18.620;2024-03-25T02:26:21;23.77;;;15.50;;
18114;SDS011;9184;54.390;18.620;2024-03-25T02:26:51;28.70;;;15.70;;
18114;SDS011;9184;54.390;18.620;2024-03-25T02:27:21;24.13;;;14.80;;
18114;SDS011;9184;54.390;18.620;2024-03-25T02:27:52;25.57;;;15.70;;
18114;SDS011;9184;54.390;18.620;2024-03-25T02:28:22;28.27;;;15.77;;
18114;SDS011;9184;54.390;18.620;2024-03-25T02:28:53;24.67;;;14.70;;
18114;SDS011;9184;54.390;18.620;2024-03-25T02:29:32;22.17;;;15.37;;
18114;SDS011;9184;54.390;18.620;2024-03-25T02:30:04;26.80;;;14.93;;
18114;SDS011;9184;54.390;18.620;2024-03-25T02:30:35;27.80;;;15.73;;
18114;SDS011;9184;54.390;18.620;2024-03-25T02:31:06;27.90;;;15.23;;
18114;SDS011;9184;54.390;18.620;2024-03-25T02:31:37;24.10;;;14.17;;
18114;SDS011;9184;54.390;18.620;2024-03-25T02:32:07;24.47;;;15.27;;
18114;SDS011;9184;54.390;18.620;2024-03-25T02:32:40;27.33;;;15.20;;
18114;SDS011;9184;54.390;18.620;2024-03-25T02:33:12;26.40;;;15.00;;
18114;SDS011;9184;54.390;18.620;2024-03-25T02:33:42;23.90;;;14.73;;
18114;SDS011;9184;54.390;18.620;2024-03-25T02:34:13;26.20;;;15.90;;
18114;SDS011;9184;54.390;18.620;2024-03-25T02:34:44;32.27;;;15.23;;
18114;SDS011;9184;54.390;18.620;2024-03-25T02:35:15;24.60;;;15.37;;
18114;SDS011;9184;54.390;18.620;2024-03-25T02:35:46;23.37;;;16.03;;
18114;SDS011;9184;54.390;18.620;2024-03-25T02:36:18;26.13;;;14.17;;
18114;SDS011;9184;54.390;18.620;2024-03-25T02:36:49;21.00;;;15.00;;
18114;SDS011;9184;54.390;18.620;2024-03-25T02:37:19;30.60;;;15.30;;
18114;SDS011;9184;54.390;18.620;2024-03-25T02:37:50;26.30;;;16.17;;
18114;SDS011;9184;54.390;18.620;2024-03-25T02:38:20;24.23;;;14.87;;
18114;SDS011;9184;54.390;18.620;2024-03-25T02:38:51;23.87;;;13.93;;
18114;SDS011;9184;54.390;18.620;2024-03-25T02:39:22;24.83;;;14.73;;
18114;SDS011;9184;54.390;18.620;2024-03-25T02:39:54;25.50;;;14.90;;
18114;SDS011;9184;54.390;18.620;2024-03-25T02:40:29;29.47;;;16.30;;
18114;SDS011;9184;54.390;18.620;2024-03-25T02:41:01;26.70;;;15.87;;
18114;SDS011;9184;54.390;18.620;2024-03-25T02:41:32;27.07;;;15.53;;
18114;SDS011;9184;54.390;18.620;2024-03-25T02:42:04;27.83;;;16.00;;
18114;SDS011;9184;54.390;18.620;2024-03-25T02:42:35;28.97;;;15.40;;
18114;SDS011;9184;54.390;18.620;2024-03-25T02:43:06;22.57;;;15.73;;
18114;SDS011;9184;54.390;18.620;2024-03-25T02:43:38;22.40;;;14.97;;
18114;SDS011;9184;54.390;18.620;2024-03-25T02:44:09;26.03;;;16.57;;
18114;SDS011;9184;54.390;18.620;2024-03-25T02:44:39;23.03;;;15.57;;
18114;SDS011;9184;54.390;18.620;2024-03-25T02:45:13;25.60;;;15.83;;
18114;SDS011;9184;54.390;18.620;2024-03-25T02:45:44;24.40;;;16.17;;
18114;SDS011;9184;54.390;18.620;2024-03-25T02:46:14;29.63;;;16.47;;
18114;SDS011;9184;54.390;18.620;2024-03-25T02:46:44;25.57;;;15.97;;
18114;SDS011;9184;54.390;18.620;2024-03-25T02:47:15;26.27;;;16.13;;
18114;SDS011;9184;54.390;18.620;2024-03-25T02:47:47;29.13;;;15.13;;
18114;SDS011;9184;54.390;18.620;2024-03-25T02:48:18;23.53;;;15.30;;
18114;SDS011;9184;54.390;18.620;2024-03-25T02:48:48;25.37;;;15.47;;
18114;SDS011;9184;54.390;18.620;2024-03-25T02:49:19;24.93;;;16.13;;
18114;SDS011;9184;54.390;18.620;2024-03-25T02:49:50;26.40;;;16.10;;
18114;SDS011;9184;54.390;18.620;2024-03-25T02:50:21;21.07;;;15.07;;
18114;SDS011;9184;54.390;18.620;2024-03-25T02:50:52;20.43;;;15.00;;
18114;SDS011;9184;54.390;18.620;2024-03-25T02:51:23;24.10;;;14.37;;
18114;SDS011;9184;54.390;18.620;2024-03-25T02:51:53;25.70;;;15.87;;
18114;SDS011;9184;54.390;18.620;2024-03-25T02:52:24;28.33;;;16.60;;
18114;SDS011;9184;54.390;18.620;2024-03-25T02:52:54;24.77;;;15.20;;
18114;SDS011;9184;54.390;18.620;2024-03-25T02:53:25;23.77;;;15.20;;
18114;SDS011;9184;54.390;18.620;2024-03-25T02:53:56;25.67;;;16.00;;
18114;SDS011;9184;54.390;18.620;2024-03-25T02:54:27;28.47;;;16.77;;
18114;SDS011;9184;54.390;18.620;2024-03-25T02:54:58;25.57;;;16.50;;
18114;SDS011;9184;54.390;18.620;2024-03-25T02:55:29;26.23;;;15.97;;
18114;SDS011;9184;54.390;18.620;2024-03-25T02:55:59;29.47;;;15.13;;
18114;SDS011;9184;54.390;18.620;2024-03-25T02:56:31;25.80;;;15.83;;
18114;SDS011;9184;54.390;18.620;2024-03-25T02:57:01;26.83;;;16.20;;
18114;SDS011;9184;54.390;18.620;2024-03-25T02:57:32;26.47;;;15.30;;
18114;SDS011;9184;54.390;18.620;2024-03-25T02:58:03;25.37;;;15.87;;
18114;SDS011;9184;54.390;18.620;2024-03-25T02:58:34;28.07;;;15.80;;
18114;SDS011;9184;54.390;18.620;2024-03-25T02:59:04;28.03;;;15.60;;
18114;SDS011;9184;54.390;18.620;2024-03-25T02:59:34;22.37;;;15.07;;
18114;SDS011;9184;54.390;18.620;2024-03-25T03:00:05;19.70;;;13.93;;
18114;SDS011;9184;54.390;18.620;2024-03-25T03:00:36;28.60;;;15.57;;
18114;SDS011;9184;54.390;18.620;2024-03-25T03:01:07;26.63;;;14.93;;
18114;SDS011;9184;54.390;18.620;2024-03-25T03:01:37;30.50;;;15.37;;